CheckWX is a tool to help pilots better visualize weather data.  It is not intended as a substitute for an official pre-flight weather briefing.

17:10:54 UTC

KBIL TAF
Billings Logan International Airport
Billings, Montana, USA
KBIL 181123Z 1812/1912 24010KT P6SM FEW080 SCT130 FM181900 32009KT P6SM VCTS SCT060CB BKN150 FM190400 25008KT P6SM FEW090 BKN120

Jun-18@
12:00 UTC

Jun-18 @ 12:00 UTC

Jun-18@
19:00 UTC

Jun-18 @ 19:00 UTC

KBIL 181123Z 1812/1912 24010KT P6SM FEW080 SCT130
Wind
  • 240° at 10 KTS
Cloud Levels
  • Few at 8,000' AGL
  • Scattered at 13,000' AGL

Jun-18@
19:00 UTC

Jun-18 @ 19:00 UTC

Jun-19@
04:00 UTC

Jun-19 @ 04:00 UTC

FM181900 32009KT P6SM VCTS SCT060CB BKN150

From

From Standard forecast or significant change

Wind
  • 320° at 9 KTS
Conditions
Area Thunderstorm
Cloud Levels
  • Scattered at 6,000' AGL
  • Broken at 15,000' AGL

Jun-19@
04:00 UTC

Jun-19 @ 04:00 UTC

Jun-19@
12:00 UTC

Jun-19 @ 12:00 UTC

FM190400 25008KT P6SM FEW090 BKN120

From

From Standard forecast or significant change

Wind
  • 250° at 8 KTS
Cloud Levels
  • Few at 9,000' AGL
  • Broken at 12,000' AGL